Disclaimer

Please do not use the information listed here in-flight or in-navigation, as they are not provided to us by the airports but are provided by volunteers, so they might be outdated.

Search


Regions


Airport information page

Radio informations:
Tower (TWR) - 118.9 MHz
Approach (APP) - 118.9 MHz

Airport informations:
Latitude: 34° 00' 19.99" S
Longitude: 022° 22' 44.00" E
Elevation: 648 feet - 198 meters
Operating hours: Remarks
Operating agency: Civil government, landing fees and diplomatic clearance may be required
Timezone: UTC+2
Fuel: Jet A1, without icing nhibitor.

100/130 MIL Spec, low lead, aviation gasoline (BLUE)

Runway information:
02/20 - 4003 x 98 feet< - >1220 x 30 meters
11/29 - 6562 x 148 feet< - >2000 x 45 meters

Recent METARs:
FAGG 130200Z AUTO 34005KT 9999 OVC045/// 17/14 Q1019
FAGG 130200Z AUTO 34005KT 9999 OVC045/// 17/14 Q1019
FAGG 130300Z 35004KT 9999 FEW035 BKN050 16/13 Q1019

Airport on the map: